createdAt,value
2019-05-26T00:01:12.585Z,5.30
2019-05-26T00:03:42.830Z,5.83
2019-05-26T00:06:13.099Z,7.97
2019-05-26T00:08:43.515Z,7.50
2019-05-26T00:11:13.936Z,5.80
2019-05-26T00:13:44.335Z,8.80
2019-05-26T00:16:14.614Z,8.70
2019-05-26T00:18:44.987Z,8.87
2019-05-26T00:21:15.322Z,8.63
2019-05-26T00:23:45.667Z,9.37
2019-05-26T00:26:16.118Z,7.33
2019-05-26T00:28:47.462Z,8.57
2019-05-26T00:31:17.838Z,9.27
2019-05-26T00:33:48.166Z,6.43
2019-05-26T00:36:18.517Z,9.60
2019-05-26T00:38:48.835Z,8.53
2019-05-26T00:41:19.275Z,10.47
2019-05-26T00:43:49.606Z,6.50
2019-05-26T00:46:20.044Z,6.40
2019-05-26T00:48:50.467Z,9.87
2019-05-26T00:51:20.979Z,13.13
2019-05-26T00:53:51.434Z,11.10
2019-05-26T00:56:21.845Z,9.07
2019-05-26T00:58:52.265Z,10.63
2019-05-26T01:01:22.610Z,7.27
2019-05-26T01:03:52.945Z,7.67
2019-05-26T01:06:23.298Z,8.27
2019-05-26T01:08:53.718Z,8.30
2019-05-26T01:11:23.993Z,9.27
2019-05-26T01:13:54.326Z,11.20
2019-05-26T01:16:24.887Z,14.60
2019-05-26T01:18:55.136Z,10.17
2019-05-26T01:21:25.508Z,11.30
2019-05-26T01:23:55.852Z,10.17
2019-05-26T01:26:26.256Z,13.00
2019-05-26T01:28:56.684Z,9.53
2019-05-26T01:31:27.088Z,11.13
2019-05-26T01:33:57.541Z,10.97
2019-05-26T01:36:28.060Z,11.77
2019-05-26T01:38:59.308Z,10.60
2019-05-26T01:41:29.641Z,13.23
2019-05-26T01:43:59.969Z,12.43
2019-05-26T01:46:30.296Z,11.20
2019-05-26T01:49:00.657Z,12.77
2019-05-26T01:51:30.927Z,12.97
2019-05-26T01:54:01.265Z,11.93
2019-05-26T01:56:31.697Z,13.30
2019-05-26T01:59:03.207Z,13.57
2019-05-26T02:01:33.748Z,13.67
2019-05-26T02:04:04.168Z,14.37
2019-05-26T02:06:34.524Z,12.87
2019-05-26T02:09:06.904Z,14.33
2019-05-26T02:11:37.496Z,13.50
2019-05-26T02:14:07.917Z,14.27
2019-05-26T02:16:38.184Z,14.87
2019-05-26T02:19:08.528Z,16.17
2019-05-26T02:21:38.890Z,15.87
2019-05-26T02:24:09.136Z,16.53
2019-05-26T02:26:39.435Z,18.60
2019-05-26T02:29:09.769Z,16.17
2019-05-26T02:31:40.151Z,15.90
2019-05-26T02:34:10.440Z,17.93
2019-05-26T02:36:40.859Z,17.10
2019-05-26T02:39:11.304Z,18.57
2019-05-26T02:41:41.675Z,18.70
2019-05-26T02:44:12.075Z,25.97
2019-05-26T02:46:43.360Z,20.17
2019-05-26T02:49:13.763Z,20.10
2019-05-26T02:51:44.068Z,18.40
2019-05-26T02:54:14.407Z,23.47
2019-05-26T02:56:44.763Z,21.10
2019-05-26T02:59:15.101Z,23.37
2019-05-26T03:02:02.551Z,21.37
2019-05-26T03:04:17.927Z,22.20
2019-05-26T03:06:49.461Z,23.47
2019-05-26T03:09:23.382Z,21.00
2019-05-26T03:11:54.554Z,20.67
2019-05-26T03:14:26.011Z,20.53
2019-05-26T03:16:58.627Z,22.07
2019-05-26T03:19:31.582Z,23.13
2019-05-26T03:22:03.620Z,23.97
2019-05-26T03:24:33.976Z,25.73
2019-05-26T03:27:04.627Z,29.27
2019-05-26T03:29:34.965Z,29.43
2019-05-26T03:32:06.222Z,30.47
2019-05-26T03:34:36.505Z,28.80
2019-05-26T03:37:07.834Z,30.70
2019-05-26T03:39:45.413Z,31.93
2019-05-26T03:42:10.323Z,31.23
2019-05-26T03:44:40.639Z,31.03
2019-05-26T03:47:12.271Z,31.13
2019-05-26T03:49:43.195Z,34.23
2019-05-26T03:52:13.563Z,31.40
2019-05-26T03:54:43.859Z,34.87
2019-05-26T03:57:14.205Z,40.07
2019-05-26T03:59:44.550Z,33.40
2019-05-26T04:02:14.949Z,35.20
2019-05-26T04:04:45.224Z,36.37
2019-05-26T04:07:15.563Z,35.80
2019-05-26T04:10:03.021Z,39.70
2019-05-26T04:12:17.811Z,37.03
2019-05-26T04:14:48.108Z,34.00
2019-05-26T04:17:18.358Z,32.73
2019-05-26T04:19:48.664Z,36.07
2019-05-26T04:22:19.059Z,32.80
2019-05-26T04:24:50.370Z,37.57
2019-05-26T04:27:20.923Z,32.73
2019-05-26T04:29:51.195Z,37.20
2019-05-26T04:32:21.452Z,37.30
2019-05-26T04:34:51.811Z,33.27
2019-05-26T04:37:22.166Z,37.57
2019-05-26T04:39:52.585Z,39.60
2019-05-26T04:42:22.853Z,39.63
2019-05-26T04:44:54.101Z,38.17
2019-05-26T04:47:24.464Z,43.07
2019-05-26T04:49:54.731Z,41.33
2019-05-26T04:52:25.059Z,42.30
2019-05-26T04:54:55.411Z,47.87
2019-05-26T04:57:25.674Z,42.23
2019-05-26T04:59:56.002Z,45.37
2019-05-26T05:02:26.335Z,45.03
2019-05-26T05:04:56.802Z,46.73
2019-05-26T05:07:28.516Z,45.37
2019-05-26T05:09:59.122Z,44.30
2019-05-26T05:12:29.488Z,43.67
2019-05-26T05:14:59.831Z,42.17
2019-05-26T05:17:31.421Z,46.47
2019-05-26T05:20:04.279Z,42.90
2019-05-26T05:22:34.690Z,42.23
2019-05-26T05:25:12.785Z,43.63
2019-05-26T05:27:37.626Z,42.63
2019-05-26T05:30:09.866Z,41.87
2019-05-26T05:32:40.147Z,42.63
2019-05-26T05:35:10.679Z,40.10
2019-05-26T05:37:41.011Z,40.30
2019-05-26T05:40:11.939Z,40.93
2019-05-26T05:42:42.271Z,36.67
2019-05-26T05:45:13.808Z,40.07
2019-05-26T05:47:44.218Z,38.67
2019-05-26T05:50:14.843Z,38.60
2019-05-26T05:52:45.195Z,35.27
2019-05-26T05:55:15.690Z,37.07
2019-05-26T05:57:45.970Z,35.33
2019-05-26T06:00:16.566Z,34.70
2019-05-26T06:02:46.992Z,36.73
2019-05-26T06:05:17.410Z,38.67
2019-05-26T06:07:47.810Z,34.70
2019-05-26T06:10:18.255Z,34.97
2019-05-26T06:12:48.611Z,34.23
2019-05-26T06:15:19.060Z,33.10
2019-05-26T06:17:49.564Z,33.27
2019-05-26T06:20:20.281Z,33.90
2019-05-26T06:22:50.558Z,33.57
2019-05-26T06:25:21.189Z,31.83
2019-05-26T06:27:51.620Z,35.97
2019-05-26T06:30:22.145Z,34.17
2019-05-26T06:32:52.793Z,32.57
2019-05-26T06:35:23.103Z,31.00
2019-05-26T06:37:53.505Z,31.73
2019-05-26T06:40:23.932Z,29.63
2019-05-26T06:42:54.187Z,28.87
2019-05-26T06:45:24.623Z,28.60
2019-05-26T06:47:54.983Z,26.77
2019-05-26T06:50:25.427Z,28.43
2019-05-26T06:52:55.844Z,28.57
2019-05-26T06:55:26.660Z,26.87
2019-05-26T06:57:57.099Z,27.10
2019-05-26T07:00:27.631Z,26.40
2019-05-26T07:02:58.015Z,24.20
2019-05-26T07:05:28.465Z,24.10
2019-05-26T07:07:58.799Z,23.07
2019-05-26T07:10:29.151Z,23.17
2019-05-26T07:12:59.500Z,22.10
2019-05-26T07:15:30.900Z,21.13
2019-05-26T07:18:01.370Z,20.60
2019-05-26T07:20:31.800Z,21.13
2019-05-26T07:23:03.534Z,21.43
2019-05-26T07:25:34.310Z,21.90
2019-05-26T07:28:04.828Z,19.63
2019-05-26T07:30:35.260Z,19.03
2019-05-26T07:33:05.713Z,23.63
2019-05-26T07:35:36.020Z,20.70
2019-05-26T07:38:06.328Z,18.50
2019-05-26T07:40:36.646Z,19.73
2019-05-26T07:43:07.078Z,18.73
2019-05-26T07:45:37.370Z,18.07
2019-05-26T07:48:07.723Z,18.07
2019-05-26T07:50:38.066Z,17.77
2019-05-26T07:53:08.359Z,17.70
2019-05-26T07:55:38.718Z,19.30
2019-05-26T07:58:09.435Z,17.13
2019-05-26T08:00:39.767Z,18.30
2019-05-26T08:03:10.199Z,18.53
2019-05-26T08:05:40.555Z,17.27
2019-05-26T08:08:13.048Z,18.17
2019-05-26T08:10:42.991Z,19.73
2019-05-26T08:13:13.300Z,17.20
2019-05-26T08:15:43.906Z,17.93
2019-05-26T08:18:14.206Z,16.70
2019-05-26T08:20:44.561Z,16.17
2019-05-26T08:23:15.008Z,17.17
2019-05-26T08:25:46.488Z,17.47
2019-05-26T08:28:16.921Z,16.40
2019-05-26T08:30:47.377Z,16.63
2019-05-26T08:33:17.820Z,17.13
2019-05-26T08:35:48.256Z,17.30
2019-05-26T08:38:18.668Z,19.43
2019-05-26T08:41:06.348Z,17.60
2019-05-26T08:43:37.334Z,20.13
2019-05-26T08:46:07.759Z,15.27
2019-05-26T08:48:38.189Z,17.23
2019-05-26T08:51:08.541Z,16.40
2019-05-26T08:53:39.074Z,18.03
2019-05-26T08:56:09.421Z,15.93
2019-05-26T08:58:39.869Z,16.87
2019-05-26T09:01:10.217Z,15.97
2019-05-26T09:03:40.594Z,15.27
2019-05-26T09:06:10.879Z,16.87
2019-05-26T09:08:41.241Z,16.33
2019-05-26T09:11:11.610Z,16.30
2019-05-26T09:13:42.031Z,15.47
2019-05-26T09:16:12.467Z,16.63
2019-05-26T09:18:42.767Z,15.63
2019-05-26T09:21:13.152Z,14.50
2019-05-26T09:23:43.536Z,15.23
2019-05-26T09:26:13.903Z,14.23
2019-05-26T09:28:44.323Z,14.63
2019-05-26T09:31:14.694Z,13.70
2019-05-26T09:33:44.973Z,14.40
2019-05-26T09:36:16.378Z,14.80
2019-05-26T09:38:46.803Z,13.40
2019-05-26T09:41:17.150Z,14.93
2019-05-26T09:43:47.492Z,13.57
2019-05-26T09:46:17.910Z,13.33
2019-05-26T09:48:48.400Z,12.50
2019-05-26T09:51:18.813Z,13.07
2019-05-26T09:54:00.741Z,12.33
2019-05-26T09:56:21.149Z,12.07
2019-05-26T09:58:52.740Z,11.50
2019-05-26T10:01:23.170Z,11.80
2019-05-26T10:03:53.436Z,10.63
2019-05-26T10:06:24.748Z,11.28
2019-05-26T10:08:55.202Z,10.75
2019-05-26T10:11:25.574Z,10.53
2019-05-26T10:13:55.820Z,10.53
2019-05-26T10:16:26.261Z,10.93
2019-05-26T10:18:57.669Z,9.20
2019-05-26T10:21:28.145Z,8.88
2019-05-26T10:23:59.409Z,10.80
2019-05-26T10:26:29.832Z,9.00
2019-05-26T10:29:00.857Z,9.65
2019-05-26T10:31:31.388Z,8.03
2019-05-26T10:34:03.403Z,8.28
2019-05-26T10:36:33.772Z,13.80
2019-05-26T10:39:06.072Z,7.72
2019-05-26T10:41:36.456Z,8.35
2019-05-26T10:44:07.888Z,10.08
2019-05-26T10:46:38.407Z,7.92
2019-05-26T10:49:08.837Z,8.60
2019-05-26T10:51:39.304Z,9.55
2019-05-26T10:54:09.672Z,7.55
2019-05-26T10:56:40.136Z,7.40
2019-05-26T10:59:10.441Z,8.25
2019-05-26T11:01:40.864Z,9.15
2019-05-26T11:04:11.301Z,8.65
2019-05-26T11:06:41.813Z,7.95
2019-05-26T11:09:12.164Z,7.80
2019-05-26T11:11:42.573Z,10.23
2019-05-26T11:14:12.967Z,7.85
2019-05-26T11:16:43.366Z,8.40
2019-05-26T11:19:13.793Z,7.08
2019-05-26T11:21:44.173Z,5.87
2019-05-26T11:24:14.432Z,9.20
2019-05-26T11:26:44.784Z,9.83
2019-05-26T11:29:15.184Z,7.05
2019-05-26T11:31:45.626Z,6.87
2019-05-26T11:34:15.955Z,7.50
2019-05-26T11:36:46.326Z,6.08
2019-05-26T11:39:16.598Z,9.75
2019-05-26T11:41:54.576Z,11.15
2019-05-26T11:44:19.086Z,7.70
2019-05-26T11:46:49.471Z,10.13
2019-05-26T11:49:19.717Z,6.62
2019-05-26T11:51:50.971Z,8.15
2019-05-26T11:54:21.420Z,10.32
2019-05-26T11:56:51.842Z,8.75
2019-05-26T11:59:22.115Z,12.43
2019-05-26T12:01:52.561Z,7.80
2019-05-26T12:04:22.984Z,7.47
2019-05-26T12:06:53.288Z,8.28
2019-05-26T12:09:23.720Z,22.07
2019-05-26T12:11:54.057Z,12.58
2019-05-26T12:14:34.278Z,6.42
2019-05-26T12:16:56.454Z,7.03
2019-05-26T12:19:26.788Z,7.10
2019-05-26T12:21:57.107Z,8.40
2019-05-26T12:24:27.507Z,6.45
2019-05-26T12:26:57.862Z,4.83
2019-05-26T12:29:28.196Z,5.10
2019-05-26T12:31:58.544Z,6.50
2019-05-26T12:34:28.808Z,6.08
2019-05-26T12:36:59.180Z,5.97
2019-05-26T12:39:29.623Z,5.83
2019-05-26T12:41:59.991Z,6.50
2019-05-26T12:44:30.427Z,6.15
2019-05-26T12:47:02.536Z,7.55
2019-05-26T12:49:32.895Z,5.70
2019-05-26T12:52:03.358Z,7.42
2019-05-26T12:54:34.015Z,5.50
2019-05-26T12:57:04.449Z,6.58
2019-05-26T12:59:34.833Z,4.90
2019-05-26T13:02:05.864Z,4.65
2019-05-26T13:04:36.196Z,5.03
2019-05-26T13:07:06.661Z,5.70
2019-05-26T13:09:36.996Z,4.72
2019-05-26T13:12:07.505Z,8.53
2019-05-26T13:14:37.929Z,5.40
2019-05-26T13:17:08.354Z,4.85
2019-05-26T13:19:38.606Z,7.60
2019-05-26T13:22:09.038Z,7.65
2019-05-26T13:24:39.386Z,5.22
2019-05-26T13:27:09.746Z,5.45
2019-05-26T13:29:40.187Z,6.35
2019-05-26T13:32:10.610Z,5.25
2019-05-26T13:34:40.955Z,6.20
2019-05-26T13:37:11.295Z,5.72
2019-05-26T13:39:41.738Z,5.45
2019-05-26T13:42:12.082Z,5.35
2019-05-26T13:44:42.346Z,6.10
2019-05-26T13:47:25.414Z,5.30
2019-05-26T13:49:44.770Z,6.87
2019-05-26T13:52:15.195Z,6.05
2019-05-26T13:54:45.471Z,7.72
2019-05-26T13:57:15.790Z,6.87
2019-05-26T13:59:46.142Z,6.03
2019-05-26T14:02:16.422Z,6.42
2019-05-26T14:04:46.774Z,5.85
2019-05-26T14:07:17.198Z,5.85
2019-05-26T14:09:47.626Z,7.35
2019-05-26T14:12:18.141Z,7.62
2019-05-26T14:14:49.216Z,6.78
2019-05-26T14:17:20.396Z,9.33
2019-05-26T14:19:52.470Z,6.28
2019-05-26T14:22:22.911Z,7.00
2019-05-26T14:24:54.452Z,5.87
2019-05-26T14:27:24.865Z,7.33
2019-05-26T14:29:55.298Z,6.78
2019-05-26T14:32:26.630Z,8.03
2019-05-26T14:34:56.955Z,7.17
2019-05-26T14:37:27.258Z,7.85
2019-05-26T14:39:57.597Z,7.87
2019-05-26T14:42:28.354Z,7.10
2019-05-26T14:44:58.834Z,10.50
2019-05-26T14:47:29.125Z,11.85
2019-05-26T14:49:59.404Z,12.73
2019-05-26T14:52:30.838Z,8.03
2019-05-26T14:55:01.173Z,10.97
2019-05-26T14:57:31.594Z,10.57
2019-05-26T15:00:03.581Z,8.50
2019-05-26T15:02:33.858Z,9.67
2019-05-26T15:05:04.479Z,8.37
2019-05-26T15:07:34.901Z,7.80
2019-05-26T15:10:06.407Z,9.93
2019-05-26T15:12:36.738Z,7.50
2019-05-26T15:15:07.513Z,8.17
2019-05-26T15:17:37.962Z,10.13
2019-05-26T15:20:11.819Z,6.73
2019-05-26T15:22:42.173Z,7.53
2019-05-26T15:25:13.281Z,7.37
2019-05-26T15:27:46.421Z,8.00
2019-05-26T15:30:17.193Z,12.00
2019-05-26T15:32:47.568Z,8.07
2019-05-26T15:35:18.025Z,7.35
2019-05-26T15:37:48.449Z,8.73
2019-05-26T15:40:19.033Z,7.77
2019-05-26T15:42:50.487Z,6.80
2019-05-26T15:45:21.015Z,7.47
2019-05-26T15:47:51.367Z,7.00
2019-05-26T15:50:21.946Z,9.63
2019-05-26T15:52:52.267Z,7.73
2019-05-26T15:55:22.635Z,6.03
2019-05-26T15:57:53.045Z,6.73
2019-05-26T16:00:25.040Z,8.23
2019-05-26T16:02:56.208Z,7.33
2019-05-26T16:05:26.579Z,7.73
2019-05-26T16:07:56.905Z,8.83
2019-05-26T16:10:27.200Z,6.20
2019-05-26T16:12:57.460Z,9.80
2019-05-26T16:15:27.806Z,7.27
2019-05-26T16:17:58.085Z,5.50
2019-05-26T16:20:28.457Z,8.00
2019-05-26T16:22:59.661Z,6.80
2019-05-26T16:25:30.081Z,6.28
2019-05-26T16:28:00.452Z,4.67
2019-05-26T16:30:30.947Z,5.53
2019-05-26T16:33:01.912Z,4.80
2019-05-26T16:35:32.391Z,5.50
2019-05-26T16:38:02.703Z,6.80
2019-05-26T16:40:33.060Z,5.33
2019-05-26T16:43:04.648Z,5.33
2019-05-26T16:45:37.016Z,4.07
2019-05-26T16:48:07.113Z,4.17
2019-05-26T16:50:37.450Z,3.93
2019-05-26T16:53:08.756Z,5.58
2019-05-26T16:55:39.151Z,6.87
2019-05-26T16:58:09.632Z,3.50
2019-05-26T17:00:39.981Z,5.90
2019-05-26T17:03:10.336Z,4.20
2019-05-26T17:05:40.679Z,4.75
2019-05-26T17:08:10.968Z,4.27
2019-05-26T17:10:41.379Z,4.05
2019-05-26T17:13:11.854Z,5.70
2019-05-26T17:15:42.203Z,6.57
2019-05-26T17:18:12.487Z,5.67
2019-05-26T17:20:42.883Z,4.67
2019-05-26T17:23:13.238Z,6.20
2019-05-26T17:25:44.581Z,6.90
2019-05-26T17:28:14.940Z,6.93
2019-05-26T17:30:45.348Z,6.37
2019-05-26T17:33:15.708Z,7.30
2019-05-26T17:35:46.141Z,5.13
2019-05-26T17:38:17.392Z,6.60
2019-05-26T17:40:47.742Z,7.50
2019-05-26T17:43:18.166Z,6.73
2019-05-26T17:45:48.577Z,7.03
2019-05-26T17:48:19.009Z,5.73
2019-05-26T17:50:49.449Z,7.40
2019-05-26T17:53:19.792Z,6.37
2019-05-26T17:55:50.136Z,3.80
2019-05-26T17:58:20.444Z,4.53
2019-05-26T18:00:51.043Z,6.33
2019-05-26T18:03:21.512Z,7.70
2019-05-26T18:05:51.986Z,5.97
2019-05-26T18:08:22.309Z,4.23
2019-05-26T18:10:52.580Z,6.50
2019-05-26T18:13:22.973Z,4.60
2019-05-26T18:15:53.461Z,6.73
2019-05-26T18:18:24.429Z,5.70
2019-05-26T18:20:54.829Z,6.10
2019-05-26T18:23:25.261Z,4.40
2019-05-26T18:25:55.606Z,5.10
2019-05-26T18:28:25.949Z,7.87
2019-05-26T18:30:56.222Z,4.23
2019-05-26T18:33:27.006Z,4.97
2019-05-26T18:35:57.398Z,7.20
2019-05-26T18:38:27.822Z,6.60
2019-05-26T18:40:58.241Z,5.80
2019-05-26T18:43:28.601Z,5.57
2019-05-26T18:45:58.999Z,8.17
2019-05-26T18:48:29.424Z,7.63
2019-05-26T18:50:59.765Z,8.60
2019-05-26T18:53:34.824Z,7.00
2019-05-26T19:34:46.309Z,4.87
2019-05-26T19:37:18.605Z,6.27
2019-05-26T19:39:48.940Z,4.90
2019-05-26T19:42:19.603Z,5.60
2019-05-26T19:44:50.139Z,5.30
2019-05-26T19:47:20.568Z,7.73
2019-05-26T19:49:50.989Z,5.03
2019-05-26T19:52:21.473Z,6.63
2019-05-26T19:54:51.911Z,5.63
2019-05-26T19:57:22.407Z,4.60
2019-05-26T19:59:52.880Z,5.17
2019-05-26T20:02:23.235Z,5.70
2019-05-26T20:04:53.695Z,5.97
2019-05-26T20:07:23.956Z,5.53
2019-05-26T20:09:54.421Z,6.70
2019-05-26T20:12:24.772Z,5.87
2019-05-26T20:14:55.062Z,5.47
2019-05-26T20:17:25.339Z,5.40
2019-05-26T20:19:56.291Z,6.20
2019-05-26T20:22:26.861Z,5.27
2019-05-26T20:24:57.465Z,6.80
2019-05-26T20:27:28.176Z,4.97
2019-05-26T20:29:58.462Z,5.27
2019-05-26T20:32:28.819Z,6.83
2019-05-26T20:34:59.160Z,6.17
2019-05-26T20:37:29.664Z,5.60
2019-05-26T20:40:00.000Z,7.80
2019-05-26T20:42:30.463Z,9.23
2019-05-26T20:45:03.310Z,7.77
2019-05-26T20:47:33.706Z,5.33
2019-05-26T20:50:04.470Z,5.23
2019-05-26T20:52:35.982Z,4.70
2019-05-26T20:55:06.843Z,5.10
2019-05-26T20:57:37.174Z,4.47
2019-05-26T21:00:10.030Z,4.67
2019-05-26T21:02:41.095Z,5.63
2019-05-26T21:05:11.736Z,5.27
2019-05-26T21:07:42.020Z,4.03
2019-05-26T21:10:13.899Z,5.53
2019-05-26T21:12:44.296Z,5.47
2019-05-26T21:15:14.855Z,5.60
2019-05-26T21:17:45.252Z,4.93
2019-05-26T21:20:15.996Z,4.30
2019-05-26T21:22:46.430Z,4.50
2019-05-26T21:25:16.949Z,3.40
2019-05-26T21:27:47.372Z,4.17
2019-05-26T21:30:17.735Z,4.20
2019-05-26T21:32:48.094Z,5.27
2019-05-26T21:35:18.521Z,5.03
2019-05-26T21:37:48.892Z,5.77
2019-05-26T21:40:19.344Z,6.30
2019-05-26T21:42:49.708Z,3.67
2019-05-26T21:45:20.144Z,3.67
2019-05-26T21:47:50.473Z,4.10
2019-05-26T21:50:20.905Z,4.40
2019-05-26T21:52:51.233Z,6.40
2019-05-26T21:55:21.614Z,3.83
2019-05-26T21:57:51.937Z,3.23
2019-05-26T22:00:24.589Z,4.57
2019-05-26T22:02:55.945Z,4.13
2019-05-26T22:05:27.117Z,4.30
2019-05-26T22:07:57.486Z,4.90
2019-05-26T22:10:28.358Z,3.30
2019-05-26T22:12:58.747Z,3.57
2019-05-26T22:15:29.115Z,3.97
2019-05-26T22:17:59.445Z,3.50
2019-05-26T22:20:29.814Z,4.43
2019-05-26T22:23:00.245Z,4.67
2019-05-26T22:25:31.631Z,4.63
2019-05-26T22:28:02.544Z,3.83
2019-05-26T22:30:32.889Z,3.30
2019-05-26T22:33:03.253Z,3.43
2019-05-26T22:35:33.586Z,4.40
2019-05-26T22:38:04.771Z,4.17
2019-05-26T22:40:35.035Z,3.07
2019-05-26T22:43:05.451Z,4.33
2019-05-26T22:45:35.827Z,4.17
2019-05-26T22:48:06.208Z,3.33
2019-05-26T22:50:36.581Z,3.90
2019-05-26T22:53:06.904Z,3.73
2019-05-26T22:55:37.161Z,3.30
2019-05-26T22:58:08.371Z,3.30
2019-05-26T23:00:38.869Z,4.80
2019-05-26T23:03:09.201Z,4.10
2019-05-26T23:05:39.633Z,4.40
2019-05-26T23:08:10.011Z,3.83
2019-05-26T23:10:41.395Z,6.60
2019-05-26T23:13:11.756Z,3.13
2019-05-26T23:15:42.191Z,6.57
2019-05-26T23:18:12.536Z,4.47
2019-05-26T23:20:42.967Z,4.07
2019-05-26T23:23:13.299Z,6.00
2019-05-26T23:25:43.691Z,5.27
2019-05-26T23:28:13.951Z,4.80
2019-05-26T23:30:44.337Z,4.00
2019-05-26T23:33:14.654Z,6.77
2019-05-26T23:35:45.108Z,4.30
2019-05-26T23:38:15.514Z,4.50
2019-05-26T23:40:45.885Z,5.83
2019-05-26T23:43:16.337Z,5.37
2019-05-26T23:45:46.685Z,5.40
2019-05-26T23:48:16.929Z,7.67
2019-05-26T23:50:47.307Z,5.30
2019-05-26T23:53:17.679Z,6.60
2019-05-26T23:55:48.010Z,5.77
2019-05-26T23:58:18.312Z,6.57
